Time;durP1;ratioP1;P1;durP2;ratioP2;P2;SDS_P1;SDS_P2;PMS_P1;PMS_P2;Temp;Humidity;BMP_temperature;BMP_pressure;BME280_temperature;BME280_humidity;BME280_pressure;Samples;Min_cycle;Max_cycle;Signal;HPM_P1;HPM_P2
2022/01/10 00:02:14;;;;;;;24.05;6.45;;;3.80;99.90;;;;;;5066920;28;20056;-62
2022/01/10 00:04:40;;;;;;;23.52;5.97;;;3.70;99.90;;;;;;5080098;28;20075;-64
2022/01/10 00:07:06;;;;;;;21.17;6.63;;;3.70;99.90;;;;;;5089484;28;20082;-62
2022/01/10 00:09:31;;;;;;;29.98;6.13;;;3.80;99.90;;;;;;5089945;28;20052;-62
2022/01/10 00:11:57;;;;;;;19.17;5.75;;;3.70;99.90;;;;;;5086555;28;20048;-62
2022/01/10 00:14:23;;;;;;;22.88;5.68;;;3.70;99.90;;;;;;5075425;28;20093;-62
2022/01/10 00:16:48;;;;;;;14.73;5.32;;;3.70;99.90;;;;;;5091008;28;20444;-62
2022/01/10 00:19:14;;;;;;;18.38;6.03;;;3.60;99.90;;;;;;5090647;28;20052;-63
2022/01/10 00:21:40;;;;;;;22.52;5.65;;;3.60;99.90;;;;;;5076791;28;20072;-64
2022/01/10 00:24:06;;;;;;;23.45;5.70;;;3.60;99.90;;;;;;5069951;28;20040;-63
2022/01/10 00:26:31;;;;;;;18.10;5.15;;;3.50;99.90;;;;;;5090089;28;20044;-62
2022/01/10 00:28:57;;;;;;;14.75;5.03;;;3.50;99.90;;;;;;5090488;28;20066;-65
2022/01/10 00:31:23;;;;;;;22.98;6.75;;;3.50;99.90;;;;;;5081403;28;20048;-62
2022/01/10 00:33:48;;;;;;;19.30;5.28;;;3.40;99.90;;;;;;5070388;28;20045;-62
2022/01/10 00:36:14;;;;;;;14.70;5.43;;;3.40;99.90;;;;;;5084315;28;20056;-63
2022/01/10 00:38:40;;;;;;;19.17;5.45;;;3.40;99.90;;;;;;5089467;28;20052;-62
2022/01/10 00:41:06;;;;;;;19.00;5.82;;;3.40;99.90;;;;;;5090190;28;20500;-63
2022/01/10 00:43:34;;;;;;;23.17;5.55;;;3.40;99.90;;;;;;5081702;28;20075;-63
2022/01/10 00:46:01;;;;;;;19.15;5.45;;;3.30;99.90;;;;;;5078469;28;20052;-65
2022/01/10 00:48:27;;;;;;;21.67;4.97;;;3.30;99.90;;;;;;5090670;28;20052;-62
2022/01/10 00:50:53;;;;;;;16.45;5.32;;;3.20;99.90;;;;;;5090470;28;20489;-63
2022/01/10 00:53:19;;;;;;;14.50;5.10;;;3.20;99.90;;;;;;5089134;28;20040;-64
2022/01/10 00:55:44;;;;;;;15.02;4.97;;;3.20;99.90;;;;;;5079289;28;20055;-64
2022/01/10 00:58:11;;;;;;;17.20;5.43;;;3.20;99.90;;;;;;5090361;28;20059;-63
2022/01/10 01:00:37;;;;;;;21.45;4.95;;;3.20;99.90;;;;;;5089286;28;20064;-62
2022/01/10 01:03:03;;;;;;;22.50;4.72;;;3.20;99.90;;;;;;5069621;28;20052;-63
2022/01/10 01:05:30;;;;;;;17.05;5.43;;;3.20;99.90;;;;;;5069134;28;20055;-62
2022/01/10 01:08:00;;;;;;;21.42;4.50;;;3.10;99.90;;;;;;5077030;28;20079;-63
2022/01/10 01:13:06;;;;;;;16.13;5.40;;;3.10;99.90;;;;;;5073371;28;20573;-62
2022/01/10 01:15:44;;;;;;;14.07;4.75;;;3.00;99.90;;;;;;5067276;28;20117;-62
2022/01/10 01:18:17;;;;;;;19.85;4.95;;;3.00;99.90;;;;;;5086260;28;20127;-62
2022/01/10 01:20:45;;;;;;;22.63;5.20;;;3.00;99.90;;;;;;5094489;28;20048;-62
2022/01/10 01:26:02;;;;;;;21.08;6.05;;;2.90;99.90;;;;;;5073318;28;20447;-62
2022/01/10 01:28:30;;;;;;;21.17;5.13;;;2.90;99.90;;;;;;5087652;28;20508;-62
2022/01/10 01:30:56;;;;;;;16.48;4.50;;;2.80;99.90;;;;;;5094162;28;20477;-63
2022/01/10 01:33:24;;;;;;;19.13;5.55;;;2.80;99.90;;;;;;5087135;28;20052;-62
2022/01/10 01:35:51;;;;;;;17.67;4.60;;;2.80;99.90;;;;;;5072880;28;20040;-62
2022/01/10 01:38:17;;;;;;;15.77;4.72;;;2.80;99.90;;;;;;5074407;28;20087;-62
2022/01/10 01:40:51;;;;;;;14.85;4.53;;;2.80;99.90;;;;;;5073738;28;20508;-63
2022/01/10 01:43:17;;;;;;;18.58;5.43;;;2.70;99.90;;;;;;5072923;28;20048;-63
2022/01/10 01:45:47;;;;;;;19.30;6.00;;;2.70;99.90;;;;;;5065818;28;20098;-62
2022/01/10 01:48:13;;;;;;;15.02;5.45;;;2.70;99.90;;;;;;5059963;28;20046;-62
2022/01/10 01:50:40;;;;;;;20.60;5.97;;;2.70;99.90;;;;;;5073495;28;20051;-62
2022/01/10 01:53:07;;;;;;;28.73;6.15;;;2.60;99.90;;;;;;5073569;28;20503;-62
2022/01/10 01:55:33;;;;;;;18.50;5.38;;;2.60;99.90;;;;;;5072112;28;20146;-62
2022/01/10 01:57:59;;;;;;;15.88;5.57;;;2.70;99.90;;;;;;5073520;28;20424;-62
2022/01/10 02:00:26;;;;;;;18.25;5.32;;;2.60;99.90;;;;;;5081908;28;20388;-62
2022/01/10 02:02:53;;;;;;;13.55;5.55;;;2.70;99.90;;;;;;5072479;28;20052;-62
2022/01/10 02:05:19;;;;;;;15.70;5.47;;;2.60;99.90;;;;;;5071938;28;20181;-62
2022/01/10 02:07:45;;;;;;;13.80;5.32;;;2.60;99.90;;;;;;5073246;28;20497;-62
2022/01/10 02:10:12;;;;;;;19.10;5.15;;;2.50;99.90;;;;;;5086809;28;20461;-62
2022/01/10 02:12:38;;;;;;;22.15;5.32;;;2.60;99.90;;;;;;5093211;28;20084;-62
2022/01/10 02:15:04;;;;;;;21.90;5.68;;;2.50;99.90;;;;;;5078764;28;20107;-62
2022/01/10 02:17:35;;;;;;;21.00;6.13;;;2.50;99.90;;;;;;5071468;28;20086;-62
2022/01/10 02:20:04;;;;;;;19.75;6.55;;;2.50;99.90;;;;;;5080374;28;20048;-62
2022/01/10 02:22:30;;;;;;;13.30;5.00;;;2.50;99.90;;;;;;5079597;28;20052;-62
2022/01/10 02:24:56;;;;;;;20.85;6.07;;;2.50;99.90;;;;;;5072303;28;20044;-62
2022/01/10 02:27:23;;;;;;;16.98;5.97;;;2.50;99.90;;;;;;5071383;28;20140;-62
2022/01/10 02:29:49;;;;;;;21.30;5.65;;;2.50;99.90;;;;;;5073573;28;20041;-62
2022/01/10 02:32:15;;;;;;;22.77;6.38;;;2.50;99.90;;;;;;5088517;28;20078;-62
2022/01/10 02:34:42;;;;;;;18.42;6.00;;;2.50;99.90;;;;;;5072349;28;20049;-62
2022/01/10 02:37:07;;;;;;;22.58;5.88;;;2.40;99.90;;;;;;5105179;28;20131;-62
2022/01/10 02:39:34;;;;;;;18.75;4.97;;;2.60;99.90;;;;;;5086462;28;20119;-62
2022/01/10 02:41:59;;;;;;;17.73;5.50;;;2.40;99.90;;;;;;5072749;28;20045;-63
2022/01/10 02:44:25;;;;;;;18.40;5.53;;;2.40;99.90;;;;;;5068167;28;20052;-63
2022/01/10 02:46:51;;;;;;;20.05;6.15;;;2.40;99.90;;;;;;5052461;28;20049;-63
2022/01/10 02:49:26;;;;;;;20.15;6.18;;;2.40;99.90;;;;;;5069513;28;20139;-63
2022/01/10 02:51:54;;;;;;;15.57;5.60;;;2.30;99.90;;;;;;5077870;28;20045;-62
2022/01/10 02:54:22;;;;;;;18.63;5.57;;;2.40;99.90;;;;;;5071563;28;20052;-63
2022/01/10 02:56:53;;;;;;;19.85;5.20;;;2.40;99.90;;;;;;5072366;28;20058;-64
2022/01/10 02:59:20;;;;;;;25.15;5.82;;;2.30;99.90;;;;;;5077122;28;20408;-63
2022/01/10 03:01:46;;;;;;;19.35;6.10;;;2.30;99.90;;;;;;5077066;28;20471;-63
2022/01/10 03:04:12;;;;;;;21.65;5.80;;;2.30;99.90;;;;;;5056791;28;20053;-62
2022/01/10 03:06:39;;;;;;;17.50;4.97;;;2.30;99.90;;;;;;5050582;28;20471;-63
2022/01/10 03:09:06;;;;;;;17.40;6.15;;;2.20;99.90;;;;;;5054042;28;20049;-62
2022/01/10 03:11:40;;;;;;;13.63;4.88;;;2.20;99.90;;;;;;5080561;28;20047;-63
2022/01/10 03:14:06;;;;;;;21.85;6.15;;;2.30;99.90;;;;;;5063126;28;20106;-62
2022/01/10 03:16:33;;;;;;;20.40;5.55;;;2.20;99.90;;;;;;5051589;28;20057;-63
2022/01/10 03:18:59;;;;;;;23.98;6.70;;;2.30;99.90;;;;;;5050762;28;20091;-62
2022/01/10 03:21:25;;;;;;;20.77;7.10;;;2.20;99.90;;;;;;5084046;28;20479;-63
2022/01/10 03:23:51;;;;;;;24.00;6.63;;;2.20;99.90;;;;;;5069908;28;20044;-63
2022/01/10 03:26:18;;;;;;;25.00;6.75;;;2.20;99.90;;;;;;5051737;28;20084;-63
2022/01/10 03:28:43;;;;;;;19.05;6.10;;;2.20;99.90;;;;;;5051650;28;20984;-63
2022/01/10 03:31:09;;;;;;;13.23;6.10;;;2.20;99.90;;;;;;5080305;28;20132;-62
2022/01/10 03:33:35;;;;;;;20.38;6.45;;;2.10;99.90;;;;;;5062113;28;20048;-62
2022/01/10 03:36:00;;;;;;;20.60;5.93;;;2.20;99.90;;;;;;5071084;28;20048;-62
2022/01/10 03:38:26;;;;;;;24.42;6.07;;;2.10;99.90;;;;;;5071119;28;20036;-63
2022/01/10 03:40:52;;;;;;;21.27;6.60;;;2.10;99.90;;;;;;5075373;28;20526;-62
2022/01/10 03:43:19;;;;;;;20.35;6.78;;;2.10;99.90;;;;;;5086053;28;20428;-63
2022/01/10 03:45:45;;;;;;;22.77;6.28;;;2.10;99.90;;;;;;5071044;28;20071;-64
2022/01/10 03:48:10;;;;;;;17.20;6.53;;;2.00;99.90;;;;;;5071474;28;20044;-63
2022/01/10 03:50:36;;;;;;;21.88;6.22;;;2.00;99.90;;;;;;5070456;28;20382;-62
2022/01/10 03:53:03;;;;;;;21.05;6.72;;;2.00;99.90;;;;;;5090562;28;20230;-62
2022/01/10 03:55:29;;;;;;;21.95;6.60;;;2.00;99.90;;;;;;5072992;28;20048;-62
2022/01/10 03:57:55;;;;;;;16.05;6.55;;;2.00;99.90;;;;;;5070969;28;20056;-62
2022/01/10 04:00:21;;;;;;;23.20;7.32;;;2.00;99.90;;;;;;5070755;28;20405;-62
2022/01/10 04:02:55;;;;;;;19.73;6.35;;;1.90;99.90;;;;;;5070769;28;20115;-62
2022/01/10 04:05:21;;;;;;;25.20;6.60;;;1.90;99.90;;;;;;5069589;28;20063;-62
2022/01/10 04:07:47;;;;;;;22.15;6.82;;;1.90;99.90;;;;;;5067779;28;20044;-63
2022/01/10 04:10:14;;;;;;;22.05;7.00;;;1.90;99.90;;;;;;5070003;28;20051;-63
2022/01/10 04:12:40;;;;;;;21.25;7.15;;;1.90;99.90;;;;;;5071475;28;20481;-63
2022/01/10 04:15:08;;;;;;;19.10;7.50;;;1.90;99.90;;;;;;5055978;28;20049;-63
2022/01/10 04:17:34;;;;;;;32.30;8.80;;;1.90;99.90;;;;;;5073198;28;20511;-63
2022/01/10 04:20:01;;;;;;;19.65;7.25;;;1.90;99.90;;;;;;5069775;28;20052;-63
2022/01/10 04:22:26;;;;;;;21.05;8.68;;;1.90;99.90;;;;;;5071888;28;20131;-63
2022/01/10 04:24:52;;;;;;;20.73;7.82;;;1.90;99.90;;;;;;5069171;28;20171;-62
2022/01/10 04:27:18;;;;;;;18.25;7.40;;;1.80;99.90;;;;;;5068768;28;20052;-63
2022/01/10 04:29:43;;;;;;;21.13;8.57;;;1.80;99.90;;;;;;5070238;28;20098;-63
2022/01/10 04:32:11;;;;;;;26.67;8.20;;;1.90;99.90;;;;;;5070494;28;20124;-63
2022/01/10 04:34:37;;;;;;;21.35;7.97;;;1.80;99.90;;;;;;5071356;28;20106;-63
2022/01/10 04:37:04;;;;;;;19.35;7.82;;;1.80;99.90;;;;;;5082074;28;20093;-63
2022/01/10 04:39:29;;;;;;;20.85;8.40;;;1.90;99.90;;;;;;5078575;28;20045;-63
2022/01/10 04:41:55;;;;;;;21.88;8.18;;;1.80;99.90;;;;;;5069885;28;20378;-63
2022/01/10 04:44:21;;;;;;;25.33;8.82;;;1.80;99.90;;;;;;5070065;28;20101;-63
2022/01/10 04:46:47;;;;;;;30.27;9.60;;;1.80;99.90;;;;;;5069413;28;20040;-63
2022/01/10 04:49:21;;;;;;;22.90;8.93;;;1.70;99.90;;;;;;5070310;28;20044;-63
2022/01/10 04:51:49;;;;;;;21.33;8.48;;;1.70;99.90;;;;;;5070230;28;20059;-63
2022/01/10 04:54:15;;;;;;;21.35;9.52;;;1.70;99.90;;;;;;5070279;28;20447;-65
2022/01/10 04:56:41;;;;;;;22.08;8.60;;;1.70;99.90;;;;;;5069621;28;20120;-65
2022/01/10 04:59:07;;;;;;;16.60;8.45;;;1.70;99.90;;;;;;5089360;28;20135;-63
2022/01/10 05:01:32;;;;;;;35.80;10.38;;;1.70;99.90;;;;;;5084085;28;20091;-63
2022/01/10 05:03:58;;;;;;;25.05;8.65;;;1.70;99.90;;;;;;5049899;28;20041;-62
2022/01/10 05:06:24;;;;;;;27.20;9.00;;;1.70;99.90;;;;;;5050618;28;20049;-63
2022/01/10 05:08:50;;;;;;;34.08;13.70;;;1.70;99.90;;;;;;5078912;28;20052;-62
2022/01/10 05:11:16;;;;;;;38.90;15.25;;;1.70;99.90;;;;;;5089207;28;20135;-62
2022/01/10 05:13:42;;;;;;;25.98;12.02;;;1.70;99.90;;;;;;5079813;28;20068;-63
2022/01/10 05:16:08;;;;;;;24.63;10.63;;;1.60;99.90;;;;;;5069782;28;20062;-63
2022/01/10 05:18:34;;;;;;;33.22;10.95;;;1.70;99.90;;;;;;5077938;28;20055;-63
2022/01/10 05:20:59;;;;;;;28.30;10.50;;;1.60;99.90;;;;;;5090042;28;20048;-63
2022/01/10 05:23:25;;;;;;;26.23;10.60;;;1.60;99.90;;;;;;5090322;28;20401;-63
2022/01/10 05:25:51;;;;;;;23.13;10.73;;;1.60;99.90;;;;;;5090083;28;20040;-61
2022/01/10 05:28:17;;;;;;;30.02;11.07;;;1.60;99.90;;;;;;5085889;28;20424;-64
2022/01/10 05:30:43;;;;;;;28.92;10.68;;;1.60;99.90;;;;;;5069428;28;20518;-64
2022/01/10 05:33:09;;;;;;;26.85;10.02;;;1.60;99.90;;;;;;5069885;28;20502;-65
2022/01/10 05:35:36;;;;;;;26.27;9.55;;;2.00;99.90;;;;;;5070255;28;20080;-65
2022/01/10 05:38:02;;;;;;;28.52;10.98;;;1.60;99.90;;;;;;5069786;28;20487;-64
2022/01/10 05:40:28;;;;;;;23.20;10.85;;;2.10;99.90;;;;;;5084902;28;20128;-64
2022/01/10 05:42:54;;;;;;;23.40;11.25;;;1.60;99.90;;;;;;5069749;28;20119;-65
2022/01/10 05:45:20;;;;;;;27.45;11.85;;;1.50;99.90;;;;;;5070173;28;20048;-64
2022/01/10 05:47:46;;;;;;;32.50;12.30;;;1.50;99.90;;;;;;5068408;28;20044;-64
2022/01/10 05:50:19;;;;;;;35.22;12.02;;;1.50;99.90;;;;;;5068980;28;20478;-64
2022/01/10 05:52:45;;;;;;;24.42;11.85;;;1.50;99.90;;;;;;5069305;28;20057;-63
2022/01/10 05:55:12;;;;;;;30.33;11.88;;;1.50;99.90;;;;;;5070326;28;20045;-62
2022/01/10 05:57:38;;;;;;;28.42;12.45;;;1.50;99.90;;;;;;5073366;28;20049;-62
2022/01/10 06:00:05;;;;;;;31.50;12.60;;;1.50;99.90;;;;;;5076421;28;20044;-62
2022/01/10 06:02:30;;;;;;;35.20;12.90;;;1.50;99.90;;;;;;5071521;28;20105;-62
2022/01/10 06:04:59;;;;;;;35.45;13.80;;;1.50;99.90;;;;;;5071827;28;20052;-61
2022/01/10 06:07:24;;;;;;;30.23;13.38;;;1.50;99.90;;;;;;5055563;28;20469;-64
2022/01/10 06:09:50;;;;;;;24.13;12.05;;;1.50;99.90;;;;;;5073406;28;20076;-65
2022/01/10 06:12:16;;;;;;;28.73;13.02;;;1.40;99.90;;;;;;5071899;28;20088;-64
2022/01/10 06:14:41;;;;;;;25.20;12.80;;;1.40;99.90;;;;;;5071657;28;20040;-64
2022/01/10 06:17:07;;;;;;;30.02;13.43;;;1.70;99.90;;;;;;5069605;28;20055;-64
2022/01/10 06:19:33;;;;;;;27.63;13.48;;;1.40;99.90;;;;;;5069369;28;20045;-64
2022/01/10 06:21:59;;;;;;;28.42;13.98;;;1.40;99.90;;;;;;5083921;28;20110;-62
2022/01/10 06:24:25;;;;;;;31.92;16.25;;;1.30;99.90;;;;;;5071850;28;20512;-62
2022/01/10 06:26:51;;;;;;;24.13;13.13;;;1.40;99.90;;;;;;5071973;28;20460;-63
2022/01/10 06:29:16;;;;;;;28.92;14.32;;;1.30;99.90;;;;;;5072365;28;20079;-64
2022/01/10 06:31:42;;;;;;;35.75;14.77;;;1.30;99.90;;;;;;5082004;28;20052;-65
2022/01/10 06:34:08;;;;;;;31.75;14.40;;;1.40;99.90;;;;;;5086403;28;20503;-62
2022/01/10 06:36:34;;;;;;;32.10;15.38;;;1.30;99.90;;;;;;5072546;28;20175;-63
2022/01/10 06:39:00;;;;;;;34.65;16.33;;;1.30;99.90;;;;;;5072255;28;20048;-62
2022/01/10 06:41:25;;;;;;;36.30;15.18;;;1.30;99.90;;;;;;5071653;28;20075;-63
2022/01/10 06:43:51;;;;;;;33.30;16.25;;;1.30;99.90;;;;;;5071161;28;20055;-63
2022/01/10 06:46:17;;;;;;;32.50;15.95;;;1.40;99.90;;;;;;5072222;28;20440;-63
2022/01/10 06:48:43;;;;;;;37.47;16.20;;;1.30;99.90;;;;;;5054731;28;20052;-62
2022/01/10 06:51:08;;;;;;;33.22;17.85;;;1.40;99.90;;;;;;5071592;28;20114;-62
2022/01/10 06:53:34;;;;;;;37.33;18.10;;;1.30;99.90;;;;;;5072476;28;20462;-63
2022/01/10 06:56:00;;;;;;;33.20;16.95;;;1.30;99.90;;;;;;5070996;28;20045;-64
2022/01/10 06:58:25;;;;;;;33.05;16.77;;;1.40;99.90;;;;;;5071162;28;20053;-64
2022/01/10 07:00:51;;;;;;;35.75;16.30;;;1.30;99.90;;;;;;5066929;28;20041;-64
2022/01/10 07:03:17;;;;;;;33.40;15.40;;;1.30;99.90;;;;;;5083956;28;20379;-65
2022/01/10 07:05:42;;;;;;;36.08;16.67;;;1.30;99.90;;;;;;5059917;28;20049;-64
2022/01/10 07:08:08;;;;;;;39.58;19.10;;;1.30;99.90;;;;;;5069917;28;20052;-64
2022/01/10 07:10:34;;;;;;;34.50;17.33;;;1.30;99.90;;;;;;5073090;28;20032;-64
2022/01/10 07:13:00;;;;;;;42.22;17.98;;;1.20;99.90;;;;;;5051578;28;20061;-62
2022/01/10 07:15:26;;;;;;;40.58;19.55;;;1.30;99.90;;;;;;5063636;28;20576;-64
2022/01/10 07:17:52;;;;;;;31.80;18.20;;;1.20;99.90;;;;;;5071986;28;20056;-62
2022/01/10 07:20:18;;;;;;;39.10;19.90;;;1.30;99.90;;;;;;5071520;28;20439;-62
2022/01/10 07:22:43;;;;;;;39.50;19.80;;;1.20;99.90;;;;;;5071020;28;20481;-62
2022/01/10 07:25:09;;;;;;;37.53;19.40;;;1.20;99.90;;;;;;5068032;28;20540;-64
2022/01/10 07:27:35;;;;;;;40.25;20.17;;;1.20;99.90;;;;;;5069276;28;20052;-62
2022/01/10 07:30:03;;;;;;;40.78;19.83;;;1.30;99.90;;;;;;5070604;28;20489;-62
2022/01/10 07:32:29;;;;;;;44.00;21.13;;;1.30;99.90;;;;;;5071811;28;20127;-62
2022/01/10 07:34:56;;;;;;;42.10;20.88;;;1.30;99.90;;;;;;5070835;28;20511;-63
2022/01/10 07:37:22;;;;;;;43.85;22.02;;;1.20;99.90;;;;;;5069188;28;20084;-64
2022/01/10 07:39:47;;;;;;;43.63;19.67;;;1.30;99.90;;;;;;5066539;28;20044;-62
2022/01/10 07:42:13;;;;;;;41.25;18.63;;;1.20;99.90;;;;;;5070221;28;20043;-64
2022/01/10 07:44:39;;;;;;;46.72;20.38;;;1.30;99.90;;;;;;5070725;28;20127;-63
2022/01/10 07:47:05;;;;;;;36.78;18.40;;;1.30;99.90;;;;;;5079341;28;20170;-63
2022/01/10 07:49:31;;;;;;;37.88;18.27;;;1.30;99.90;;;;;;5066508;28;20141;-66
2022/01/10 07:51:57;;;;;;;40.83;18.23;;;1.30;99.90;;;;;;5065430;28;20095;-64
2022/01/10 07:54:27;;;;;;;42.53;18.83;;;1.30;99.90;;;;;;5103048;27;20052;-64
2022/01/10 07:56:53;;;;;;;36.58;18.23;;;1.30;99.90;;;;;;5067749;28;20064;-63
2022/01/10 07:59:21;;;;;;;35.28;17.20;;;1.20;99.90;;;;;;5065655;28;20397;-63
2022/01/10 08:01:47;;;;;;;39.50;18.73;;;1.20;99.90;;;;;;5066577;28;20055;-65
2022/01/10 08:04:14;;;;;;;40.92;19.35;;;1.20;99.90;;;;;;5062677;28;20490;-64
2022/01/10 08:06:40;;;;;;;30.73;18.52;;;1.20;99.90;;;;;;5068204;28;20040;-63
2022/01/10 08:09:06;;;;;;;38.72;18.40;;;1.20;99.90;;;;;;5064030;28;20370;-65
2022/01/10 08:11:32;;;;;;;34.78;19.50;;;1.20;99.90;;;;;;5105639;27;20054;-65
2022/01/10 08:13:58;;;;;;;43.50;19.48;;;1.20;99.90;;;;;;5069342;28;20057;-64
2022/01/10 08:16:25;;;;;;;49.78;21.17;;;1.20;99.90;;;;;;5068187;28;20126;-64
2022/01/10 08:18:50;;;;;;;40.17;19.65;;;1.20;99.90;;;;;;5067374;28;20044;-64
2022/01/10 08:21:16;;;;;;;46.13;21.38;;;1.20;99.90;;;;;;5065775;28;20706;-64
2022/01/10 08:23:42;;;;;;;41.28;19.52;;;1.30;99.90;;;;;;5052745;28;20056;-64
2022/01/10 08:26:08;;;;;;;43.13;20.25;;;1.40;99.90;;;;;;5050798;28;20049;-65
2022/01/10 08:28:38;;;;;;;38.67;19.95;;;1.30;99.90;;;;;;5049422;28;20056;-64
2022/01/10 08:31:05;;;;;;;41.60;19.73;;;1.30;99.90;;;;;;5068231;28;20041;-65
2022/01/10 08:33:31;;;;;;;46.83;21.17;;;1.30;99.90;;;;;;5070545;28;20052;-65
2022/01/10 08:35:57;;;;;;;39.08;20.10;;;1.40;99.90;;;;;;5066442;28;20401;-65
2022/01/10 08:38:23;;;;;;;44.80;21.25;;;1.40;99.90;;;;;;5068554;28;20053;-64
2022/01/10 08:40:49;;;;;;;39.55;21.42;;;1.40;99.90;;;;;;5067626;28;20047;-64
2022/01/10 08:43:16;;;;;;;46.40;21.85;;;1.40;99.90;;;;;;5068050;28;20040;-65
2022/01/10 08:45:43;;;;;;;40.85;20.92;;;1.50;99.90;;;;;;5067972;28;20119;-65
2022/01/10 08:48:09;;;;;;;38.13;20.30;;;1.50;99.90;;;;;;5068778;28;20049;-64
2022/01/10 08:50:35;;;;;;;46.40;21.83;;;1.60;99.90;;;;;;5066087;28;20386;-65
2022/01/10 08:53:06;;;;;;;51.88;22.23;;;1.60;99.90;;;;;;5101171;28;20049;-65
2022/01/10 08:55:33;;;;;;;42.28;23.38;;;1.60;99.90;;;;;;5068214;28;20044;-65
2022/01/10 08:57:59;;;;;;;44.25;22.27;;;1.60;99.90;;;;;;5067946;28;20048;-65
2022/01/10 09:00:26;;;;;;;39.50;20.50;;;1.70;99.90;;;;;;5066591;28;20571;-65
2022/01/10 09:02:52;;;;;;;43.35;22.73;;;1.70;99.90;;;;;;5068958;28;20412;-66
2022/01/10 09:05:18;;;;;;;45.35;21.20;;;1.80;99.90;;;;;;5066934;28;20097;-66
2022/01/10 09:07:44;;;;;;;43.47;23.05;;;1.80;99.90;;;;;;5050334;28;20495;-66
2022/01/10 09:10:09;;;;;;;44.13;22.88;;;1.90;99.90;;;;;;5064103;28;20494;-66
2022/01/10 09:12:37;;;;;;;44.67;22.48;;;1.90;99.90;;;;;;5100639;28;20068;-65
2022/01/10 09:15:04;;;;;;;43.33;23.08;;;2.20;99.90;;;;;;5070491;28;20053;-65
2022/01/10 09:17:30;;;;;;;45.15;22.08;;;2.00;99.90;;;;;;5085077;28;20045;-66
2022/01/10 09:19:56;;;;;;;49.53;23.08;;;2.10;99.90;;;;;;5067595;28;20044;-67
2022/01/10 09:22:22;;;;;;;42.97;23.13;;;2.10;99.90;;;;;;5067735;28;20090;-67
2022/01/10 09:24:47;;;;;;;44.63;23.20;;;2.10;99.90;;;;;;5102124;28;20114;-67
2022/01/10 09:27:14;;;;;;;43.17;23.23;;;2.10;99.90;;;;;;5059142;28;20048;-67
2022/01/10 09:29:41;;;;;;;44.85;22.55;;;2.20;99.90;;;;;;5067486;28;20130;-66
2022/01/10 09:32:10;;;;;;;47.45;23.60;;;2.20;99.90;;;;;;5071368;28;20044;-66
2022/01/10 09:34:36;;;;;;;39.45;22.60;;;2.30;99.90;;;;;;5054461;28;20459;-66
2022/01/10 09:37:02;;;;;;;41.90;22.15;;;2.40;99.90;;;;;;5107076;27;20051;-66
2022/01/10 09:39:28;;;;;;;39.17;22.30;;;2.40;99.90;;;;;;5105157;28;20055;-65
2022/01/10 09:41:56;;;;;;;37.83;21.15;;;2.40;99.90;;;;;;5071831;28;20052;-66
2022/01/10 09:44:23;;;;;;;39.60;21.98;;;2.50;99.90;;;;;;5072857;28;20543;-66
2022/01/10 09:46:49;;;;;;;37.97;22.45;;;2.50;99.90;;;;;;5074532;28;20052;-66
2022/01/10 09:49:15;;;;;;;37.40;21.35;;;2.50;99.90;;;;;;5071129;28;20509;-67
2022/01/10 09:51:42;;;;;;;36.20;21.80;;;2.60;99.90;;;;;;5071870;28;20052;-67
2022/01/10 09:54:07;;;;;;;37.55;21.65;;;2.70;99.90;;;;;;5072194;28;20044;-65
2022/01/10 09:56:33;;;;;;;35.75;21.30;;;2.70;99.90;;;;;;5071444;28;20436;-66
2022/01/10 09:58:59;;;;;;;38.58;22.20;;;2.80;99.90;;;;;;5073575;28;20044;-66
2022/01/10 10:01:27;;;;;;;39.33;22.00;;;2.90;99.90;;;;;;5077814;28;20101;-65
2022/01/10 10:03:58;;;;;;;37.00;21.35;;;2.90;99.90;;;;;;5075012;28;20091;-65
2022/01/10 10:06:26;;;;;;;40.38;21.27;;;2.90;99.90;;;;;;5072365;28;20055;-65
2022/01/10 10:08:52;;;;;;;43.33;22.48;;;3.10;99.90;;;;;;5063340;28;20647;-65
2022/01/10 10:11:18;;;;;;;39.70;22.95;;;3.10;99.90;;;;;;5068007;28;20569;-65
2022/01/10 10:13:53;;;;;;;48.70;22.65;;;3.10;99.90;;;;;;5059336;28;20139;-65
2022/01/10 10:16:23;;;;;;;38.85;20.73;;;3.20;99.90;;;;;;5070116;28;20482;-65
2022/01/10 10:18:50;;;;;;;41.03;21.02;;;3.30;99.90;;;;;;5070699;28;20059;-65
2022/01/10 10:21:18;;;;;;;41.20;22.25;;;3.30;99.90;;;;;;5071579;28;20059;-65
2022/01/10 10:23:49;;;;;;;49.10;23.58;;;3.40;99.90;;;;;;5069396;28;20869;-65
2022/01/10 10:26:21;;;;;;;45.40;22.08;;;3.50;99.90;;;;;;5070948;28;20048;-65
2022/01/10 10:28:48;;;;;;;37.60;21.77;;;3.50;99.90;;;;;;5072078;28;20108;-64
2022/01/10 10:31:24;;;;;;;38.92;21.42;;;3.60;99.90;;;;;;5076897;28;20048;-65
2022/01/10 10:33:51;;;;;;;42.30;23.15;;;3.70;99.90;;;;;;5066189;28;20092;-65
2022/01/10 10:36:18;;;;;;;40.40;22.20;;;3.80;99.90;;;;;;5055320;28;20049;-66
2022/01/10 10:38:44;;;;;;;39.35;21.75;;;3.80;99.90;;;;;;5100126;28;20140;-65
2022/01/10 10:41:10;;;;;;;35.65;20.15;;;3.80;99.90;;;;;;5069710;28;20055;-66
2022/01/10 10:43:41;;;;;;;36.97;19.70;;;3.90;99.90;;;;;;5070795;28;20063;-66
2022/01/10 10:46:15;;;;;;;38.33;20.48;;;3.90;99.90;;;;;;5071955;28;20048;-65
2022/01/10 10:48:43;;;;;;;38.78;19.20;;;3.90;99.90;;;;;;5071776;28;20058;-65
2022/01/10 10:51:10;;;;;;;40.05;18.20;;;4.00;99.90;;;;;;5071760;28;20036;-65
2022/01/10 10:53:36;;;;;;;36.00;18.77;;;4.00;99.90;;;;;;5067397;28;20118;-66
2022/01/10 10:56:04;;;;;;;38.50;19.45;;;4.00;99.90;;;;;;5071871;28;20036;-65
2022/01/10 10:58:31;;;;;;;35.67;19.15;;;4.00;99.90;;;;;;5070991;28;20412;-67
2022/01/10 11:00:59;;;;;;;35.13;17.45;;;4.00;99.90;;;;;;5071468;28;20062;-65
2022/01/10 11:03:25;;;;;;;35.53;17.23;;;4.10;99.90;;;;;;5063833;28;20496;-67
2022/01/10 11:05:59;;;;;;;30.90;16.98;;;4.10;99.90;;;;;;5059974;28;20422;-65
2022/01/10 11:08:31;;;;;;;33.78;18.38;;;4.10;99.90;;;;;;5085971;28;20123;-65
2022/01/10 11:11:01;;;;;;;38.38;17.92;;;4.30;99.90;;;;;;5069208;28;20044;-65
2022/01/10 11:13:28;;;;;;;33.78;18.85;;;4.30;99.90;;;;;;5068084;28;20136;-65
2022/01/10 11:15:58;;;;;;;34.28;18.42;;;4.40;99.90;;;;;;5063595;28;20041;-65
2022/01/10 11:18:23;;;;;;;38.00;18.42;;;4.50;99.90;;;;;;5098815;28;20106;-65
2022/01/10 11:20:52;;;;;;;34.40;16.65;;;4.50;99.90;;;;;;5055629;28;20048;-65
2022/01/10 11:23:18;;;;;;;31.02;15.98;;;4.60;99.90;;;;;;5074249;28;20056;-65
2022/01/10 11:25:44;;;;;;;30.35;16.73;;;4.60;99.90;;;;;;5066761;28;20064;-64
2022/01/10 11:28:24;;;;;;;32.85;16.98;;;4.70;99.90;;;;;;5064227;28;20117;-65
2022/01/10 11:30:59;;;;;;;37.05;16.65;;;4.80;99.90;;;;;;5065921;28;20120;-65
2022/01/10 11:33:26;;;;;;;31.73;16.98;;;4.80;99.90;;;;;;5068926;28;20044;-65
2022/01/10 11:35:56;;;;;;;29.05;15.32;;;4.90;99.90;;;;;;5067151;28;20048;-64
2022/01/10 11:38:27;;;;;;;33.75;15.10;;;4.90;99.90;;;;;;5068204;28;20048;-65
2022/01/10 11:40:54;;;;;;;33.83;15.18;;;5.10;99.90;;;;;;5067555;28;20040;-66
2022/01/10 11:43:51;;;;;;;28.25;14.93;;;5.00;99.90;;;;;;5067179;28;20041;-65
2022/01/10 11:46:36;;;;;;;30.45;15.88;;;5.10;99.90;;;;;;5060761;28;20563;-65
2022/01/10 11:49:08;;;;;;;;;;;5.20;99.90;;;;;;5065934;28;20498;-65
2022/01/10 11:51:43;;;;;;;29.48;15.80;;;5.20;99.90;;;;;;5069829;28;19931;-66
2022/01/10 11:54:17;;;;;;;33.47;16.35;;;5.30;99.90;;;;;;5067798;28;20044;-64
2022/01/10 11:56:49;;;;;;;32.00;14.35;;;5.30;99.90;;;;;;5058637;28;20048;-64
2022/01/10 11:59:29;;;;;;;28.00;15.15;;;5.30;99.90;;;;;;5064677;28;20067;-64
2022/01/10 12:02:02;;;;;;;26.70;14.73;;;5.30;99.90;;;;;;5066405;28;20056;-64
2022/01/10 12:04:36;;;;;;;30.77;15.25;;;5.30;99.90;;;;;;5067626;28;20406;-62
2022/01/10 12:07:04;;;;;;;25.15;14.27;;;5.30;99.90;;;;;;5051768;28;20473;-63
2022/01/10 12:09:30;;;;;;;25.95;13.70;;;5.30;99.90;;;;;;5071761;28;20049;-63
2022/01/10 12:11:58;;;;;;;23.88;11.15;;;5.30;99.90;;;;;;5050990;28;20071;-67
2022/01/10 12:14:25;;;;;;;29.20;13.00;;;5.40;99.90;;;;;;5067477;28;20117;-64
2022/01/10 12:16:52;;;;;;;29.23;12.32;;;5.40;99.90;;;;;;5071523;28;20056;-63
2022/01/10 12:19:19;;;;;;;28.88;12.35;;;5.40;99.90;;;;;;5069021;28;20112;-64
2022/01/10 12:21:45;;;;;;;24.33;11.85;;;5.50;99.90;;;;;;5049526;28;20381;-64
2022/01/10 12:24:11;;;;;;;25.30;12.15;;;5.50;99.90;;;;;;5100549;27;20054;-65
2022/01/10 12:26:38;;;;;;;25.48;11.38;;;5.60;99.90;;;;;;5067731;28;20488;-64
2022/01/10 12:29:06;;;;;;;22.65;11.18;;;5.70;99.90;;;;;;5050864;28;20071;-65
2022/01/10 12:31:34;;;;;;;29.08;11.73;;;5.70;99.90;;;;;;5066292;28;20392;-64
2022/01/10 12:34:02;;;;;;;26.90;12.25;;;5.70;99.90;;;;;;5067204;28;20066;-64
2022/01/10 12:36:29;;;;;;;22.85;11.25;;;5.80;99.90;;;;;;5084076;28;20056;-64
2022/01/10 12:39:09;;;;;;;25.52;11.02;;;5.80;99.90;;;;;;5084654;28;20500;-64
2022/01/10 12:41:35;;;;;;;26.35;12.52;;;5.90;99.90;;;;;;5068990;28;20048;-65
2022/01/10 12:44:02;;;;;;;21.88;12.23;;;6.00;99.90;;;;;;5080651;28;20047;-65
2022/01/10 12:46:32;;;;;;;30.08;12.40;;;6.00;99.90;;;;;;5073665;28;20040;-65